Time;durP1;ratioP1;P1;durP2;ratioP2;P2;SDS_P1;SDS_P2;PMS_P1;PMS_P2;Temp;Humidity;BMP_temperature;BMP_pressure;BME280_temperature;BME280_humidity;BME280_pressure;Samples;Min_cycle;Max_cycle;Signal;HPM_P1;HPM_P2
2023/02/27 00:01:40;;;;;;;0.80;0.80;;;1.90;69.50;;;1.53;55.31;95160.00;5058461;28;20192;-22
2023/02/27 00:04:07;;;;;;;0.70;0.70;;;1.90;69.40;;;1.54;55.18;95159.88;5058361;28;20269;-19
2023/02/27 00:06:34;;;;;;;0.70;0.70;;;2.00;69.40;;;1.58;55.43;95160.44;5058993;28;20275;-19
2023/02/27 00:09:03;;;;;;;0.73;0.73;;;2.00;69.40;;;1.58;55.34;95158.66;5040800;28;20624;-19
2023/02/27 00:11:30;;;;;;;0.80;0.80;;;2.00;69.40;;;1.59;55.29;95157.72;5058509;28;20703;-19
2023/02/27 00:13:57;;;;;;;0.70;0.70;;;2.10;69.40;;;1.58;55.29;95158.66;5058190;28;20188;-19
2023/02/27 00:16:24;;;;;;;0.70;0.70;;;2.10;69.40;;;1.61;55.39;95155.00;5058141;28;20210;-19
2023/02/27 00:18:51;;;;;;;0.70;0.70;;;2.10;69.40;;;1.63;55.18;95166.03;5057920;28;20200;-19
2023/02/27 00:21:18;;;;;;;0.80;0.80;;;2.10;69.30;;;1.64;54.91;95166.84;5057930;28;20246;-19
2023/02/27 00:23:45;;;;;;;0.80;0.80;;;2.10;69.30;;;1.65;55.30;95158.13;5058499;28;20193;-19
2023/02/27 00:26:12;;;;;;;0.60;0.60;;;2.10;69.30;;;1.61;55.19;95160.16;5058241;28;20203;-19
2023/02/27 00:28:39;;;;;;;0.70;0.70;;;2.10;69.30;;;1.64;54.98;95174.63;5040541;28;20202;-19
2023/02/27 00:31:06;;;;;;;0.70;0.70;;;2.10;69.30;;;1.63;55.23;95168.59;5057814;28;20207;-19
2023/02/27 00:33:33;;;;;;;0.80;0.80;;;2.10;69.40;;;1.63;55.49;95170.38;5058105;28;20192;-19
2023/02/27 00:36:01;;;;;;;0.80;0.80;;;2.10;70.30;;;1.63;55.33;95184.13;5057788;28;20200;-20
2023/02/27 00:38:28;;;;;;;0.70;0.70;;;2.10;69.40;;;1.64;55.33;95174.63;5040225;28;20216;-19
2023/02/27 00:40:57;;;;;;;0.70;0.70;;;2.20;69.50;;;1.64;55.21;95179.78;5057806;28;20204;-19
2023/02/27 00:43:25;;;;;;;0.70;0.70;;;2.10;69.40;;;1.62;55.48;95184.25;5058223;28;20196;-19
2023/02/27 00:45:52;;;;;;;0.70;0.70;;;2.20;69.50;;;1.60;55.42;95181.81;5057824;28;20216;-19
2023/02/27 00:48:20;;;;;;;0.70;0.70;;;2.10;69.40;;;1.62;55.57;95184.25;5057484;28;20204;-20
2023/02/27 00:50:49;;;;;;;0.80;0.80;;;2.10;69.40;;;1.61;55.45;95183.44;5057398;28;20188;-19
2023/02/27 00:53:16;;;;;;;0.70;0.70;;;2.10;69.50;;;1.64;55.22;95188.34;5040502;28;20196;-19
2023/02/27 00:55:43;;;;;;;0.80;0.80;;;2.20;69.60;;;1.65;55.37;95182.25;5040991;28;20499;-18
2023/02/27 00:58:10;;;;;;;0.80;0.80;;;2.20;69.50;;;1.67;55.71;95193.28;5057345;28;20627;-18
2023/02/27 01:00:37;;;;;;;0.70;0.70;;;2.20;69.60;;;1.66;55.42;95186.47;5039877;28;20647;-20
2023/02/27 01:03:05;;;;;;;0.80;0.80;;;2.20;69.50;;;1.70;55.71;95189.59;5057280;28;20290;-19
2023/02/27 01:05:32;;;;;;;0.70;0.70;;;2.20;69.60;;;1.68;55.66;95188.91;5056656;28;20212;-19
2023/02/27 01:07:59;;;;;;;0.80;0.80;;;2.20;69.60;;;1.71;55.40;95191.22;5057535;28;20191;-19
2023/02/27 01:10:26;;;;;;;0.70;0.70;;;2.20;69.50;;;1.71;55.28;95201.56;5057006;28;20639;-19
2023/02/27 01:12:53;;;;;;;0.70;0.70;;;2.30;69.60;;;1.70;55.48;95197.38;5057358;28;20199;-19
2023/02/27 01:15:20;;;;;;;0.70;0.70;;;2.30;69.60;;;1.71;55.62;95204.97;5057177;28;20200;-19
2023/02/27 01:17:48;;;;;;;0.80;0.80;;;2.20;69.50;;;1.73;55.36;95208.28;5057004;28;20533;-19
2023/02/27 01:20:16;;;;;;;0.70;0.70;;;2.20;69.50;;;1.73;55.54;95210.03;5056659;28;20231;-20
2023/02/27 01:22:44;;;;;;;0.80;0.80;;;2.30;69.60;;;1.74;55.88;95214.25;5057203;28;20574;-19
2023/02/27 01:25:12;;;;;;;0.70;0.70;;;2.30;69.70;;;1.73;55.76;95216.03;5039191;28;20274;-19
2023/02/27 01:27:39;;;;;;;0.80;0.80;;;2.30;69.70;;;1.73;56.07;95207.44;5039305;28;20196;-19
2023/02/27 01:30:10;;;;;;;0.70;0.70;;;2.30;69.80;;;1.75;56.11;95214.09;5039062;28;20214;-19
2023/02/27 01:32:37;;;;;;;0.80;0.80;;;2.30;69.90;;;1.75;55.97;95215.88;5056762;28;20172;-19
2023/02/27 01:35:05;;;;;;;0.80;0.80;;;2.30;69.90;;;1.78;56.00;95214.81;5056600;28;20543;-19
2023/02/27 01:37:32;;;;;;;0.70;0.70;;;2.40;69.90;;;1.80;56.15;95215.50;5057188;28;20628;-19
2023/02/27 01:39:59;;;;;;;0.70;0.70;;;2.30;69.90;;;1.83;56.04;95213.47;5056764;28;20199;-19
2023/02/27 01:42:28;;;;;;;0.70;0.70;;;2.30;69.80;;;1.85;55.86;95211.56;5057091;28;20624;-19
2023/02/27 01:45:29;;;;;;;0.70;0.70;;;2.40;69.80;;;1.86;55.39;95220.97;5056639;28;20545;-19
2023/02/27 01:48:08;;;;;;;0.80;0.80;;;2.40;69.70;;;1.84;55.48;95212.50;5035183;28;20204;-19
2023/02/27 01:50:40;;;;;;;0.70;0.70;;;2.40;69.60;;;1.82;55.34;95223.94;5038751;28;20192;-19
2023/02/27 01:53:07;;;;;;;0.70;0.70;;;2.40;69.60;;;1.76;55.68;95220.13;5040215;28;20552;-19
2023/02/27 01:55:38;;;;;;;0.80;0.80;;;2.30;69.50;;;1.76;55.59;95222.69;5038754;28;20210;-19
2023/02/27 01:58:09;;;;;;;0.80;0.80;;;2.40;69.60;;;1.78;55.54;95222.56;5038866;28;20286;-19
2023/02/27 02:00:36;;;;;;;0.70;0.70;;;2.30;70.50;;;1.76;55.60;95220.91;5039172;28;20215;-18
2023/02/27 02:03:28;;;;;;;0.80;0.80;;;2.30;69.70;;;1.76;55.88;95227.88;5038821;28;20628;-19
2023/02/27 02:05:58;;;;;;;0.80;0.80;;;2.30;69.80;;;1.73;56.19;95228.13;5038700;28;20212;-18
2023/02/27 02:08:29;;;;;;;0.70;0.70;;;2.30;69.80;;;1.72;56.09;95235.06;5039001;28;20488;-19
2023/02/27 02:10:58;;;;;;;0.70;0.70;;;2.30;69.90;;;1.72;56.06;95227.31;5038457;28;20290;-19
2023/02/27 02:13:25;;;;;;;0.80;0.80;;;2.30;69.80;;;1.73;56.23;95235.88;5038920;28;20188;-19
2023/02/27 02:16:05;;;;;;;0.70;0.70;;;2.30;69.90;;;1.72;56.15;95236.81;5055893;28;20188;-19
2023/02/27 02:18:45;;;;;;;0.70;0.70;;;2.30;70.00;;;1.69;55.89;95226.75;5038371;28;20200;-19
2023/02/27 02:21:24;;;;;;;0.65;0.65;;;2.30;69.90;;;1.65;56.13;95230.53;5038255;28;20662;-19
2023/02/27 02:24:26;;;;;;;0.70;0.70;;;2.20;69.90;;;1.60;56.28;95223.19;5056024;28;20258;-18
2023/02/27 02:27:17;;;;;;;0.82;0.82;;;2.20;69.70;;;1.52;55.82;95223.81;5055709;28;20219;-19
2023/02/27 02:30:21;;;;;;;0.70;0.70;;;2.10;69.70;;;1.46;55.95;95228.69;5054642;28;20214;-19
2023/02/27 02:33:39;;;;;;;0.70;0.70;;;2.00;69.60;;;1.39;56.07;95230.94;5055641;28;20585;-19
2023/02/27 02:36:28;;;;;;;0.70;0.70;;;2.00;69.70;;;1.30;56.27;95234.31;5054583;28;20295;-19
2023/02/27 02:39:26;;;;;;;0.70;0.70;;;1.90;69.60;;;1.20;56.36;95231.66;5054532;28;20216;-19
2023/02/27 02:42:30;;;;;;;0.70;0.70;;;1.80;69.60;;;1.08;56.27;95231.69;5037926;28;20632;-19
2023/02/27 02:45:31;;;;;;;0.70;0.70;;;1.70;69.70;;;0.95;56.94;95239.63;5055157;28;20222;-18
2023/02/27 02:48:11;;;;;;;0.90;0.90;;;1.60;70.00;;;0.88;57.08;95235.06;5024208;28;20220;-19
2023/02/27 02:50:56;;;;;;;0.70;0.70;;;1.40;69.90;;;0.78;57.15;95235.00;5054272;28;20223;-19
2023/02/27 02:53:31;;;;;;;0.70;0.70;;;1.40;69.80;;;0.72;56.85;95238.06;5037903;28;20627;-19
2023/02/27 02:56:34;;;;;;;0.70;0.70;;;1.30;69.80;;;0.63;56.83;95237.06;5037711;28;20199;-18
2023/02/27 02:59:28;;;;;;;0.80;0.80;;;1.20;69.70;;;0.52;57.33;95240.47;5038829;28;20277;-18
2023/02/27 03:02:10;;;;;;;0.80;0.80;;;1.10;69.60;;;0.41;57.46;95236.16;5037727;28;20507;-19
2023/02/27 03:04:45;;;;;;;0.70;0.70;;;1.00;69.90;;;0.35;57.70;95238.44;5037717;28;20180;-19
2023/02/27 03:07:22;;;;;;;0.80;0.80;;;0.90;70.10;;;0.28;57.80;95245.81;5021203;28;20293;-19
2023/02/27 03:09:59;;;;;;;0.80;0.80;;;0.80;70.20;;;0.26;57.87;95245.13;5037517;28;20191;-19
2023/02/27 03:12:29;;;;;;;0.80;0.80;;;0.80;71.40;;;0.17;57.99;95249.22;5037973;28;20271;-19
2023/02/27 03:15:16;;;;;;;0.80;0.80;;;0.70;70.50;;;0.12;58.20;95247.03;5037917;28;20204;-19
2023/02/27 03:18:05;;;;;;;0.70;0.70;;;0.60;70.50;;;0.11;57.80;95260.84;5037523;28;20250;-18
2023/02/27 03:20:40;;;;;;;0.80;0.80;;;0.60;70.50;;;0.06;58.00;95262.97;5033732;28;20309;-18
2023/02/27 03:23:17;;;;;;;0.80;0.80;;;0.50;70.50;;;-0.02;58.22;95258.41;5034150;28;20541;-18
2023/02/27 03:25:47;;;;;;;0.80;0.80;;;0.50;70.60;;;-0.05;58.60;95257.81;5017789;28;20266;-19
2023/02/27 03:28:22;;;;;;;0.90;0.90;;;0.40;70.70;;;-0.08;58.37;95252.91;5034260;28;20259;-18
2023/02/27 03:31:26;;;;;;;0.90;0.90;;;0.40;70.80;;;-0.12;57.99;95259.22;5018163;28;20201;-18
2023/02/27 03:34:20;;;;;;;0.70;0.70;;;0.30;70.60;;;-0.16;58.25;95263.78;5021178;28;20204;-18
2023/02/27 03:37:02;;;;;;;0.80;0.80;;;0.30;70.80;;;-0.21;58.36;95260.75;5031507;28;20254;-20
2023/02/27 03:39:44;;;;;;;0.90;0.90;;;0.30;71.00;;;-0.19;58.42;95280.31;5050494;28;20201;-19
2023/02/27 03:42:16;;;;;;;0.90;0.90;;;0.20;71.00;;;-0.19;58.54;95266.59;5050207;28;20208;-19
2023/02/27 03:45:26;;;;;;;0.80;0.80;;;0.20;71.20;;;-0.19;58.81;95272.56;5033892;28;20671;-19
2023/02/27 03:47:53;;;;;;;0.70;0.70;;;0.20;71.30;;;-0.15;58.57;95273.16;5017523;28;20589;-18
2023/02/27 03:50:21;;;;;;;0.80;0.80;;;0.30;71.50;;;-0.11;58.64;95278.91;5034566;28;20629;-18
2023/02/27 03:52:48;;;;;;;0.80;0.80;;;0.30;71.50;;;-0.04;58.97;95283.50;5033842;28;20201;-19
2023/02/27 03:55:24;;;;;;;0.80;0.80;;;0.30;71.60;;;0.03;58.72;95283.03;5050249;28;20204;-18
2023/02/27 03:57:53;;;;;;;0.70;0.70;;;0.40;71.80;;;0.08;58.88;95276.56;5017544;28;20243;-18
2023/02/27 04:00:22;;;;;;;0.70;0.70;;;0.50;71.80;;;0.15;58.72;95276.91;5034444;28;20192;-18
2023/02/27 04:02:52;;;;;;;0.80;0.80;;;0.60;71.80;;;0.20;58.69;95277.38;5033740;28;20292;-19
2023/02/27 04:05:23;;;;;;;0.80;0.80;;;0.60;71.70;;;0.31;58.30;95282.50;5034204;28;20213;-18
2023/02/27 04:08:29;;;;;;;0.70;0.70;;;0.70;71.70;;;0.36;58.50;95283.94;5033629;28;20276;-19
2023/02/27 04:11:35;;;;;;;0.70;0.70;;;0.80;71.70;;;0.42;58.06;95283.44;5034553;28;20201;-19
2023/02/27 04:14:33;;;;;;;0.80;0.80;;;0.80;71.40;;;0.50;57.68;95277.69;5028683;28;20534;-18
2023/02/27 04:17:24;;;;;;;0.70;0.70;;;0.90;71.40;;;0.49;57.23;95284.63;5034708;28;20177;-19
2023/02/27 04:20:16;;;;;;;0.70;0.70;;;0.90;71.00;;;0.51;56.79;95280.13;5033535;28;20252;-19
2023/02/27 04:23:00;;;;;;;0.70;0.70;;;1.00;70.70;;;0.54;55.94;95285.06;5034433;28;20177;-18
2023/02/27 04:25:48;;;;;;;0.80;0.80;;;1.00;70.50;;;0.56;56.08;95280.63;5033537;28;20215;-18
2023/02/27 04:28:20;;;;;;;0.70;0.70;;;1.10;70.20;;;0.54;55.65;95290.22;5034679;28;20178;-19
2023/02/27 04:31:00;;;;;;;0.70;0.70;;;1.00;69.80;;;0.54;55.00;95279.06;5033595;28;20189;-20
2023/02/27 04:33:48;;;;;;;0.70;0.70;;;1.10;69.60;;;0.54;54.99;95284.22;5033437;28;20189;-19
2023/02/27 04:36:26;;;;;;;0.80;0.80;;;1.10;69.60;;;0.47;54.79;95281.31;5033746;28;20181;-19
2023/02/27 04:39:16;;;;;;;0.70;0.70;;;1.00;69.50;;;0.42;55.01;95284.25;5034515;28;20177;-18
2023/02/27 04:41:54;;;;;;;0.70;0.70;;;1.00;69.60;;;0.38;55.35;95288.03;5021251;28;20679;-19
2023/02/27 04:44:24;;;;;;;0.70;0.70;;;1.00;69.60;;;0.30;55.81;95285.22;5037483;28;20193;-19
2023/02/27 04:46:53;;;;;;;0.70;0.70;;;0.90;69.50;;;0.26;56.09;95296.72;5037310;28;20216;-19
2023/02/27 04:49:47;;;;;;;0.80;0.80;;;0.80;69.40;;;0.18;56.47;95294.72;5037064;28;20525;-18
2023/02/27 04:52:22;;;;;;;0.90;0.90;;;0.80;69.70;;;0.12;56.34;95295.19;5037633;28;20211;-19
2023/02/27 04:55:07;;;;;;;0.70;0.70;;;0.70;70.00;;;0.06;56.33;95300.81;5036747;28;20196;-19
2023/02/27 04:57:46;;;;;;;0.70;0.70;;;0.60;70.00;;;-0.01;56.43;95297.91;5036693;28;20185;-18
2023/02/27 05:00:15;;;;;;;0.70;0.70;;;0.60;69.90;;;-0.04;56.69;95305.88;5020193;28;20208;-19
2023/02/27 05:02:49;;;;;;;0.70;0.70;;;0.50;70.00;;;-0.09;56.58;95308.78;5036362;28;20193;-19
2023/02/27 05:05:24;;;;;;;0.70;0.70;;;0.50;70.00;;;-0.11;56.66;95310.69;5037902;28;20212;-18
2023/02/27 05:08:02;;;;;;;0.70;0.70;;;0.50;70.10;;;-0.15;56.91;95306.69;5036495;28;20184;-18
2023/02/27 05:11:10;;;;;;;0.80;0.80;;;0.40;70.10;;;-0.17;56.59;95326.63;5036499;28;20181;-18
2023/02/27 05:14:10;;;;;;;0.80;0.80;;;0.40;70.10;;;-0.22;56.95;95328.69;5016071;28;20308;-19
2023/02/27 05:16:52;;;;;;;0.80;0.80;;;0.30;70.20;;;-0.26;56.70;95314.41;5037415;28;20203;-18
2023/02/27 05:19:20;;;;;;;0.70;0.70;;;0.30;70.20;;;-0.28;56.90;95319.69;5038125;28;20197;-19
2023/02/27 05:22:28;;;;;;;0.80;0.80;;;0.30;70.10;;;-0.37;57.02;95317.78;5057109;28;20192;-19
2023/02/27 05:25:02;;;;;;;0.80;0.80;;;0.20;70.10;;;-0.38;56.77;95316.97;5012492;28;20203;-19
2023/02/27 05:27:38;;;;;;;0.82;0.82;;;0.20;70.20;;;-0.44;56.89;95316.59;5056967;28;20218;-19
2023/02/27 05:30:22;;;;;;;0.80;0.80;;;0.10;70.20;;;-0.44;56.61;95325.16;5039495;28;20282;-19
2023/02/27 05:33:03;;;;;;;0.70;0.70;;;0.10;70.10;;;-0.50;56.83;95326.44;5056666;28;20188;-18
2023/02/27 05:35:39;;;;;;;0.80;0.80;;;0.00;70.10;;;-0.54;56.58;95324.19;5039444;28;20275;-19
2023/02/27 05:38:31;;;;;;;0.80;0.80;;;0.00;70.10;;;-0.52;56.57;95330.06;5039725;28;20564;-19
2023/02/27 05:41:36;;;;;;;0.70;0.70;;;0.00;70.10;;;-0.58;56.51;95331.31;5056766;28;20188;-18
2023/02/27 05:44:12;;;;;;;0.80;0.80;;;0.00;70.10;;;-0.62;56.77;95329.06;5038529;28;20665;-18
2023/02/27 05:46:56;;;;;;;0.80;0.80;;;-0.10;70.10;;;-0.63;56.61;95336.00;5039420;28;20196;-19
2023/02/27 05:49:31;;;;;;;0.80;0.80;;;-0.10;70.10;;;-0.68;56.43;95333.75;5041348;28;20184;-19
2023/02/27 05:52:03;;;;;;;0.77;0.77;;;-0.10;70.10;;;-0.65;56.22;95343.00;5022470;28;20215;-19
2023/02/27 05:54:53;;;;;;;0.70;0.70;;;-0.20;70.00;;;-0.71;56.13;95338.31;5039072;28;20180;-19
2023/02/27 05:57:29;;;;;;;0.70;0.70;;;-0.20;69.90;;;-0.70;56.32;95339.94;5039280;28;20254;-18
2023/02/27 06:00:03;;;;;;;0.70;0.70;;;-0.20;69.80;;;-0.74;56.31;95341.94;5055715;28;20184;-18
2023/02/27 06:02:39;;;;;;;0.70;0.70;;;-0.20;69.80;;;-0.75;56.19;95342.84;5056042;28;20212;-19
2023/02/27 06:05:08;;;;;;;0.80;0.80;;;-0.20;69.80;;;-0.72;55.94;95345.22;5038919;28;20254;-19
2023/02/27 06:07:36;;;;;;;0.80;0.80;;;-0.20;69.80;;;-0.73;56.01;95346.16;5038786;28;20187;-19
2023/02/27 06:10:05;;;;;;;0.80;0.80;;;-0.20;69.80;;;-0.75;55.67;95344.63;5055987;28;20690;-19
2023/02/27 06:12:32;;;;;;;0.80;0.80;;;-0.20;69.70;;;-0.74;55.64;95341.94;5038567;28;20188;-18
2023/02/27 06:14:59;;;;;;;0.80;0.80;;;-0.20;69.70;;;-0.73;55.42;95353.88;5038600;28;20265;-19
2023/02/27 06:17:26;;;;;;;0.85;0.85;;;-0.20;69.60;;;-0.74;55.52;95354.81;5056009;28;20544;-19
2023/02/27 06:19:53;;;;;;;0.80;0.80;;;-0.20;69.70;;;-0.76;55.83;95351.50;5055464;28;20640;-19
2023/02/27 06:22:21;;;;;;;0.70;0.70;;;-0.20;69.70;;;-0.76;55.11;95351.50;5038451;28;20192;-20
2023/02/27 06:24:48;;;;;;;0.70;0.70;;;-0.20;69.50;;;-0.73;55.27;95350.47;5055783;28;20184;-19
2023/02/27 06:27:15;;;;;;;0.80;0.80;;;-0.20;69.50;;;-0.70;55.42;95355.41;5038662;28;20216;-19
2023/02/27 06:29:42;;;;;;;0.70;0.70;;;-0.20;69.50;;;-0.67;54.85;95363.72;5055678;28;20195;-19
2023/02/27 06:32:09;;;;;;;0.70;0.70;;;-0.20;69.30;;;-0.68;54.88;95353.56;5055752;28;20623;-19
2023/02/27 06:34:36;;;;;;;0.75;0.75;;;-0.20;69.20;;;-0.62;54.77;95367.72;5022219;28;20191;-19
2023/02/27 06:37:03;;;;;;;0.80;0.80;;;-0.10;69.20;;;-0.60;54.75;95363.28;5038152;28;20640;-19
2023/02/27 06:39:31;;;;;;;0.90;0.90;;;-0.10;69.10;;;-0.59;54.14;95360.59;5055659;28;20200;-19
2023/02/27 06:41:58;;;;;;;0.80;0.80;;;-0.10;68.80;;;-0.57;54.45;95363.88;5055657;28;20678;-19
2023/02/27 06:44:25;;;;;;;0.80;0.80;;;0.00;68.90;;;-0.52;54.41;95373.84;5038400;28;20199;-19
2023/02/27 06:46:52;;;;;;;0.80;0.80;;;0.00;68.90;;;-0.50;54.17;95374.53;5055354;28;20311;-19
2023/02/27 06:49:19;;;;;;;0.70;0.70;;;0.00;68.90;;;-0.44;54.21;95370.72;5038037;28;20188;-19
2023/02/27 06:51:46;;;;;;;0.80;0.80;;;0.10;68.90;;;-0.41;53.90;95379.03;5055404;28;20521;-19
2023/02/27 06:54:14;;;;;;;0.90;0.90;;;0.10;68.90;;;-0.35;53.81;95377.78;5037805;28;20571;-19
2023/02/27 06:56:41;;;;;;;0.80;0.80;;;0.20;69.00;;;-0.30;53.44;95373.09;5055261;28;20203;-19
2023/02/27 06:59:07;;;;;;;0.80;0.80;;;0.20;69.00;;;-0.26;53.74;95369.34;5038152;28;20265;-19
2023/02/27 07:01:35;;;;;;;0.60;0.60;;;0.30;69.00;;;-0.22;53.73;95373.34;5054974;28;20196;-19
2023/02/27 07:04:03;;;;;;;0.70;0.70;;;0.30;69.10;;;-0.14;53.12;95371.97;5037171;28;20641;-19
2023/02/27 07:06:30;;;;;;;0.70;0.70;;;0.40;69.00;;;-0.06;52.84;95375.63;5055011;28;20219;-19
2023/02/27 07:09:17;;;;;;;0.80;0.80;;;0.50;68.90;;;0.02;52.25;95387.91;5055368;28;20187;-19
2023/02/27 07:11:44;;;;;;;0.70;0.70;;;0.50;68.20;;;0.08;52.33;95384.06;5037567;28;20196;-19
2023/02/27 07:14:11;;;;;;;0.80;0.80;;;0.60;68.30;;;0.16;52.63;95386.91;5055093;28;20192;-21
2023/02/27 07:16:38;;;;;;;0.80;0.80;;;0.60;68.40;;;0.25;52.46;95388.75;5037751;28;20207;-18
2023/02/27 07:19:05;;;;;;;0.80;0.80;;;0.70;68.40;;;0.34;51.70;95391.59;5038125;28;20224;-18
2023/02/27 07:21:34;;;;;;;0.90;0.90;;;0.80;67.90;;;0.44;52.14;95392.50;5054571;28;20236;-18
2023/02/27 07:24:03;;;;;;;0.70;0.70;;;0.90;68.10;;;0.52;51.95;95386.78;5055200;28;20196;-18
2023/02/27 07:26:30;;;;;;;0.70;0.70;;;1.00;68.10;;;0.62;51.64;95385.97;5055088;28;20277;-19
2023/02/27 07:28:57;;;;;;;0.73;0.73;;;1.10;67.90;;;0.67;51.73;95385.59;5055040;28;20204;-19
2023/02/27 07:31:24;;;;;;;0.70;0.70;;;1.20;67.70;;;0.74;50.85;95391.91;5054829;28;20273;-19
2023/02/27 07:33:54;;;;;;;0.70;0.70;;;1.30;67.50;;;0.88;51.30;95388.28;5054743;28;20191;-19
2023/02/27 07:36:22;;;;;;;0.70;0.70;;;1.40;67.70;;;0.99;51.51;95387.44;5054744;28;20200;-19
2023/02/27 07:38:49;;;;;;;0.80;0.80;;;1.50;67.60;;;1.10;51.08;95378.84;5054704;28;20271;-19
2023/02/27 07:41:16;;;;;;;0.80;0.80;;;1.60;67.50;;;1.22;50.73;95387.34;5038136;28;20200;-18
2023/02/27 07:43:58;;;;;;;0.70;0.70;;;1.70;67.30;;;1.34;49.06;95383.78;5039276;28;20192;-18
2023/02/27 07:46:26;;;;;;;0.80;0.80;;;1.90;66.70;;;1.44;49.52;95391.63;5054608;28;20227;-19
2023/02/27 07:48:54;;;;;;;0.80;0.80;;;2.00;66.50;;;1.55;49.53;95393.34;5054827;28;20200;-18
2023/02/27 07:51:21;;;;;;;0.77;0.77;;;2.10;66.70;;;1.66;49.13;95389.88;5054629;28;20279;-19
2023/02/27 07:53:48;;;;;;;0.70;0.70;;;2.20;66.50;;;1.71;48.99;95390.34;5054470;28;20196;-18
2023/02/27 07:56:15;;;;;;;0.70;0.70;;;2.30;66.30;;;1.82;49.11;95398.06;5054824;28;20196;-18
2023/02/27 07:58:42;;;;;;;0.80;0.80;;;2.40;66.30;;;1.86;48.43;95385.69;5054771;28;20215;-18
2023/02/27 08:01:09;;;;;;;0.70;0.70;;;2.50;65.90;;;1.90;48.35;95387.06;5054789;28;20200;-18
2023/02/27 08:03:36;;;;;;;0.70;0.70;;;2.50;65.70;;;2.00;48.55;95403.47;5054392;28;20196;-18
2023/02/27 08:06:03;;;;;;;0.68;0.68;;;2.60;65.90;;;2.03;48.49;95398.03;5054649;28;20231;-18
2023/02/27 08:08:30;;;;;;;0.70;0.70;;;2.60;65.70;;;2.05;48.18;95409.09;5054426;28;20206;-20
2023/02/27 08:10:57;;;;;;;0.70;0.70;;;2.60;65.40;;;2.06;48.48;95402.13;5054947;28;20196;-19
2023/02/27 08:13:24;;;;;;;0.85;0.85;;;2.70;65.60;;;2.12;49.02;95403.41;5054229;28;20650;-19
2023/02/27 08:16:12;;;;;;;0.80;0.80;;;2.70;65.60;;;2.12;48.96;95409.38;5056740;28;20258;-19
2023/02/27 08:18:39;;;;;;;0.70;0.70;;;2.80;65.70;;;2.11;49.20;95405.16;5058154;28;20521;-19
2023/02/27 08:21:06;;;;;;;0.70;0.70;;;2.80;65.70;;;2.16;49.33;95407.38;5058061;28;20679;-18
2023/02/27 08:23:36;;;;;;;0.70;0.70;;;2.80;66.00;;;2.20;49.77;95416.53;5058143;28;20279;-19
2023/02/27 08:26:03;;;;;;;0.80;0.80;;;2.80;66.00;;;2.20;49.28;95417.34;5057960;28;20258;-18
2023/02/27 08:28:30;;;;;;;0.80;0.80;;;2.80;65.90;;;2.21;49.63;95424.16;5058251;28;20529;-19
2023/02/27 08:30:57;;;;;;;0.77;0.77;;;2.80;65.90;;;2.25;49.84;95424.72;5058049;28;20202;-19
2023/02/27 08:33:25;;;;;;;0.80;0.80;;;2.80;66.10;;;2.27;50.15;95427.19;5056918;28;20536;-19
2023/02/27 08:35:54;;;;;;;0.70;0.70;;;2.90;66.10;;;2.26;49.47;95422.94;5057993;28;20195;-19
2023/02/27 08:38:21;;;;;;;0.70;0.70;;;2.90;66.00;;;2.23;48.93;95429.22;5057846;28;20227;-20
2023/02/27 08:40:54;;;;;;;0.80;0.80;;;2.90;65.60;;;2.21;48.36;95431.09;5057768;28;20188;-19
2023/02/27 08:43:22;;;;;;;0.70;0.70;;;2.90;65.30;;;2.17;48.30;95430.56;5040137;28;20520;-19
2023/02/27 08:45:50;;;;;;;0.70;0.70;;;2.90;65.00;;;2.09;47.12;95430.34;5057615;28;20197;-20
2023/02/27 08:48:17;;;;;;;0.85;0.85;;;2.80;64.60;;;2.07;46.58;95437.41;5040826;28;20196;-19
2023/02/27 08:50:45;;;;;;;0.70;0.70;;;2.80;64.00;;;2.00;47.06;95444.03;5057596;28;20200;-19
2023/02/27 08:53:13;;;;;;;0.70;0.70;;;2.70;64.20;;;2.01;47.83;95443.09;5057718;28;20593;-19
2023/02/27 08:55:41;;;;;;;0.70;0.70;;;2.70;64.70;;;2.03;48.76;95454.97;5040371;28;20196;-19
2023/02/27 08:58:09;;;;;;;0.85;0.85;;;2.70;65.00;;;2.04;48.42;95451.44;5057730;28;20638;-19
2023/02/27 09:00:36;;;;;;;0.80;0.80;;;2.70;64.80;;;2.03;48.10;95460.13;5040452;28;20536;-20
2023/02/27 09:03:03;;;;;;;0.70;0.70;;;2.70;64.70;;;2.08;48.05;95462.34;5057433;28;20353;-19
2023/02/27 09:05:33;;;;;;;0.70;0.70;;;2.70;64.60;;;2.08;47.72;95457.19;5057537;28;20639;-19
2023/02/27 09:08:03;;;;;;;0.80;0.80;;;2.80;64.40;;;2.11;47.20;95469.84;5040785;28;20636;-19
2023/02/27 09:10:31;;;;;;;0.80;0.80;;;2.80;64.30;;;2.09;46.33;95476.94;5039921;28;20197;-20
2023/02/27 09:12:59;;;;;;;0.70;0.70;;;2.80;63.90;;;2.10;46.61;95478.59;5057281;28;20254;-19
2023/02/27 09:15:27;;;;;;;0.70;0.70;;;2.80;63.80;;;2.09;46.62;95474.34;5056275;28;20283;-19
2023/02/27 09:18:01;;;;;;;0.70;0.70;;;2.80;63.80;;;2.08;47.06;95478.69;5057370;28;20282;-19
2023/02/27 09:20:35;;;;;;;0.70;0.70;;;2.80;63.80;;;2.10;46.67;95482.91;5057033;28;20227;-19
2023/02/27 09:23:03;;;;;;;0.70;0.70;;;2.80;63.80;;;2.10;46.63;95480.34;5057127;28;20190;-20
2023/02/27 09:25:30;;;;;;;0.70;0.70;;;2.80;63.80;;;2.13;46.57;95485.28;5057169;28;20204;-19
2023/02/27 09:27:57;;;;;;;0.70;0.70;;;2.80;63.90;;;2.16;46.98;95483.25;5038622;28;20224;-19
2023/02/27 09:30:24;;;;;;;0.70;0.70;;;2.80;63.90;;;2.15;46.50;95485.94;5056839;28;20188;-19
2023/02/27 09:32:52;;;;;;;0.70;0.70;;;2.80;63.50;;;2.14;45.81;95484.31;5022974;28;20192;-20
2023/02/27 09:35:19;;;;;;;0.70;0.70;;;2.80;63.20;;;2.12;45.90;95491.38;5056759;28;20198;-19
2023/02/27 09:37:48;;;;;;;0.70;0.70;;;2.80;63.20;;;2.14;45.90;95489.50;5056072;28;20212;-19
2023/02/27 09:40:24;;;;;;;0.70;0.70;;;2.80;63.20;;;2.13;45.69;95499.00;5039417;28;20192;-19
2023/02/27 09:42:57;;;;;;;0.80;0.80;;;2.80;63.10;;;2.13;46.13;95496.44;5057173;28;20211;-19
2023/02/27 09:45:30;;;;;;;0.70;0.70;;;2.80;63.20;;;2.16;46.17;95495.34;5039469;28;20198;-19
2023/02/27 09:48:02;;;;;;;0.70;0.70;;;2.90;63.40;;;2.19;45.91;95500.28;5039432;28;20215;-19
2023/02/27 09:50:43;;;;;;;0.80;0.80;;;2.90;63.30;;;2.20;45.73;95500.16;5056559;28;20181;-19
2023/02/27 09:53:34;;;;;;;0.70;0.70;;;2.90;63.20;;;2.22;46.08;95502.63;5039402;28;20206;-20
2023/02/27 09:56:15;;;;;;;0.80;0.80;;;2.90;63.00;;;2.22;45.87;95498.28;5039680;28;20180;-19
2023/02/27 09:58:53;;;;;;;0.70;0.70;;;3.00;63.10;;;2.23;45.36;95505.09;5056776;28;20255;-19
2023/02/27 10:01:33;;;;;;;0.70;0.70;;;2.90;62.80;;;2.26;45.66;95505.78;5055422;28;20191;-19
2023/02/27 10:04:37;;;;;;;0.77;0.77;;;2.90;62.90;;;2.29;45.32;95508.94;5038984;28;20512;-19
2023/02/27 10:07:15;;;;;;;0.80;0.80;;;2.90;62.80;;;2.28;45.42;95509.06;5056393;28;20196;-20
2023/02/27 10:10:17;;;;;;;0.80;0.80;;;3.00;62.70;;;2.30;44.99;95509.78;5056149;28;20563;-19
2023/02/27 10:12:57;;;;;;;0.80;0.80;;;3.00;62.60;;;2.33;45.16;95512.09;5038850;28;20254;-19
2023/02/27 10:15:28;;;;;;;0.63;0.63;;;3.00;62.80;;;2.36;45.11;95506.69;5055194;28;20195;-19
2023/02/27 10:18:15;;;;;;;0.70;0.70;;;3.00;62.70;;;2.37;45.25;95509.13;5038725;28;20274;-19
2023/02/27 10:21:07;;;;;;;0.80;0.80;;;3.10;62.70;;;2.48;45.41;95512.59;5025453;28;20231;-19
2023/02/27 10:24:00;;;;;;;0.70;0.70;;;3.10;62.70;;;2.52;44.99;95507.03;5038455;28;20204;-19
2023/02/27 10:26:33;;;;;;;0.80;0.80;;;3.10;62.70;;;2.60;45.01;95505.59;5055686;28;20176;-19
2023/02/27 10:29:35;;;;;;;0.80;0.80;;;3.20;62.70;;;2.67;44.70;95499.78;5038699;28;20525;-19
2023/02/27 10:32:06;;;;;;;0.70;0.70;;;3.30;62.30;;;2.76;44.86;95497.34;5056095;28;20176;-19
2023/02/27 10:34:36;;;;;;;0.80;0.80;;;3.30;62.40;;;2.84;43.84;95502.72;5055491;28;20177;-19
2023/02/27 10:37:05;;;;;;;0.80;0.80;;;3.40;61.90;;;2.89;43.58;95508.31;5039037;28;20196;-19
2023/02/27 10:39:52;;;;;;;0.80;0.80;;;3.50;61.80;;;2.96;43.36;95504.25;5054783;28;20644;-19
2023/02/27 10:42:20;;;;;;;0.90;0.90;;;3.50;62.00;;;3.07;44.08;95502.53;5021819;28;20188;-19
2023/02/27 10:44:52;;;;;;;0.80;0.80;;;3.60;62.10;;;3.22;43.29;95500.41;5037845;28;20266;-17
2023/02/27 10:47:24;;;;;;;0.80;0.80;;;3.80;62.10;;;3.40;43.83;95504.00;5038876;28;20228;-17
2023/02/27 10:49:53;;;;;;;0.70;0.70;;;3.90;62.20;;;3.55;43.31;95504.44;5038575;28;20188;-17
2023/02/27 10:52:20;;;;;;;0.70;0.70;;;4.00;61.90;;;3.72;43.23;95500.38;5055572;28;20196;-17
2023/02/27 10:54:47;;;;;;;0.70;0.70;;;4.20;61.80;;;3.90;42.81;95502.31;5055161;28;20195;-18
2023/02/27 10:57:30;;;;;;;0.70;0.70;;;4.30;61.70;;;3.99;40.92;95498.88;5021650;28;20199;-17
2023/02/27 11:00:00;;;;;;;0.80;0.80;;;4.50;60.60;;;4.07;41.83;95480.88;5037954;28;20188;-17
2023/02/27 11:02:41;;;;;;;0.70;0.70;;;4.60;60.90;;;4.22;41.28;95486.44;5038558;28;20197;-19